createdAt,value
2022-08-31T00:00:19.786Z,82.98
2022-08-31T00:01:22.303Z,82.84
2022-08-31T00:02:24.382Z,82.98
2022-08-31T00:03:26.406Z,82.88
2022-08-31T00:04:28.558Z,82.87
2022-08-31T00:05:30.476Z,83.07
2022-08-31T00:06:33.438Z,83.04
2022-08-31T00:07:36.003Z,83.18
2022-08-31T00:08:40.143Z,83.13
2022-08-31T00:09:42.390Z,82.94
2022-08-31T00:10:45.071Z,83.04
2022-08-31T00:11:47.827Z,83.18
2022-08-31T00:12:50.006Z,83.41
2022-08-31T00:13:52.383Z,83.44
2022-08-31T00:14:54.321Z,83.90
2022-08-31T00:15:56.363Z,84.38
2022-08-31T00:16:58.865Z,84.45
2022-08-31T00:18:01.250Z,84.47
2022-08-31T00:19:03.330Z,84.54
2022-08-31T00:20:06.596Z,85.32
2022-08-31T00:21:08.602Z,85.83
2022-08-31T00:22:10.711Z,86.43
2022-08-31T00:23:13.601Z,86.39
2022-08-31T00:24:15.672Z,86.42
2022-08-31T00:25:17.768Z,86.30
2022-08-31T00:26:20.800Z,86.28
2022-08-31T00:27:23.195Z,86.48
2022-08-31T00:28:25.212Z,86.40
2022-08-31T00:29:27.447Z,86.67
2022-08-31T00:30:31.087Z,86.57
2022-08-31T00:31:33.160Z,86.28
2022-08-31T00:32:35.670Z,86.28
2022-08-31T00:33:38.456Z,86.49
2022-08-31T00:34:40.410Z,86.76
2022-08-31T00:35:44.564Z,86.93
2022-08-31T00:36:46.758Z,87.24
2022-08-31T00:37:48.875Z,87.43
2022-08-31T00:38:50.862Z,87.41
2022-08-31T00:39:52.978Z,87.20
2022-08-31T00:40:55.237Z,87.25
2022-08-31T00:41:57.660Z,87.24
2022-08-31T00:43:00.094Z,87.09
2022-08-31T00:44:04.125Z,87.06
2022-08-31T00:45:07.438Z,86.93
2022-08-31T00:46:11.319Z,86.90
2022-08-31T00:47:13.534Z,86.55
2022-08-31T00:48:15.545Z,86.45
2022-08-31T00:49:19.261Z,86.13
2022-08-31T00:50:23.952Z,86.17
2022-08-31T00:51:27.234Z,85.77
2022-08-31T00:52:33.320Z,85.59
2022-08-31T00:53:35.905Z,85.49
2022-08-31T00:54:42.641Z,85.26
2022-08-31T00:55:44.886Z,85.66
2022-08-31T00:56:47.149Z,86.17
2022-08-31T00:57:51.005Z,86.15
2022-08-31T00:58:54.362Z,85.87
2022-08-31T00:59:58.807Z,85.88
2022-08-31T01:01:02.854Z,85.85
2022-08-31T01:02:05.400Z,86.07
2022-08-31T01:03:08.520Z,86.35
2022-08-31T01:04:10.885Z,86.47
2022-08-31T01:05:13.596Z,86.46
2022-08-31T01:06:17.256Z,86.40
2022-08-31T01:07:19.444Z,86.21
2022-08-31T01:08:21.602Z,86.40
2022-08-31T01:09:26.310Z,86.46
2022-08-31T01:10:30.742Z,86.67
2022-08-31T01:11:33.695Z,86.70
2022-08-31T01:12:36.166Z,86.88
2022-08-31T01:13:38.596Z,86.57
2022-08-31T01:14:41.190Z,86.32
2022-08-31T01:15:44.960Z,86.12
2022-08-31T01:16:49.250Z,86.21
2022-08-31T01:17:53.040Z,86.19
2022-08-31T01:18:56.560Z,86.54
2022-08-31T01:20:03.435Z,86.08
2022-08-31T01:21:07.394Z,86.02
2022-08-31T01:22:17.388Z,85.76
2022-08-31T01:23:21.326Z,85.71
2022-08-31T01:24:24.267Z,85.50
2022-08-31T01:25:33.353Z,85.40
2022-08-31T01:26:32.545Z,85.39
2022-08-31T01:27:35.506Z,85.25
2022-08-31T01:28:37.503Z,85.30
2022-08-31T01:29:39.750Z,85.24
2022-08-31T01:30:42.929Z,85.35
2022-08-31T01:31:46.268Z,85.37
2022-08-31T01:32:48.798Z,85.35
2022-08-31T01:33:50.809Z,85.10
2022-08-31T01:34:52.962Z,84.98
2022-08-31T01:35:55.742Z,85.45
2022-08-31T01:36:58.194Z,85.86
2022-08-31T01:38:00.978Z,86.10
2022-08-31T01:39:03.763Z,85.96
2022-08-31T01:40:06.253Z,85.73
2022-08-31T01:41:08.260Z,86.05
2022-08-31T01:42:10.400Z,85.93
2022-08-31T01:43:12.515Z,85.95
2022-08-31T01:44:16.462Z,86.13
2022-08-31T01:45:18.616Z,86.64
2022-08-31T01:46:21.103Z,87.40
2022-08-31T01:47:23.226Z,87.48
2022-08-31T01:48:26.614Z,88.21
2022-08-31T01:49:28.810Z,88.22
2022-08-31T01:50:32.638Z,88.56
2022-08-31T01:51:34.689Z,88.67
2022-08-31T01:52:37.330Z,88.38
2022-08-31T01:53:40.235Z,88.44
2022-08-31T01:54:43.975Z,88.17
2022-08-31T01:55:45.935Z,88.29
2022-08-31T01:56:48.551Z,88.27
2022-08-31T01:57:50.630Z,88.08
2022-08-31T01:58:52.926Z,88.20
2022-08-31T01:59:55.000Z,88.43
2022-08-31T02:00:57.657Z,88.41
2022-08-31T02:02:00.071Z,88.54
2022-08-31T02:03:03.959Z,88.73
2022-08-31T02:04:07.207Z,88.90
2022-08-31T02:05:09.396Z,88.69
2022-08-31T02:06:12.474Z,88.64
2022-08-31T02:07:14.519Z,89.01
2022-08-31T02:08:16.896Z,88.94
2022-08-31T02:09:19.611Z,89.04
2022-08-31T02:10:23.019Z,89.21
2022-08-31T02:11:25.060Z,89.26
2022-08-31T02:12:27.094Z,89.03
2022-08-31T02:13:29.244Z,89.12
2022-08-31T02:14:31.298Z,88.82
2022-08-31T02:15:34.767Z,88.45
2022-08-31T02:16:37.225Z,88.36
2022-08-31T02:17:39.536Z,88.36
2022-08-31T02:18:41.927Z,88.36
2022-08-31T02:19:44.006Z,88.51
2022-08-31T02:20:46.086Z,88.85
2022-08-31T02:21:48.070Z,88.98
2022-08-31T02:22:50.423Z,88.96
2022-08-31T02:23:52.544Z,88.97
2022-08-31T02:24:54.662Z,88.68
2022-08-31T02:25:56.847Z,88.63
2022-08-31T02:26:59.206Z,88.56
2022-08-31T02:28:01.481Z,88.74
2022-08-31T02:29:04.018Z,88.65
2022-08-31T02:30:08.200Z,88.60
2022-08-31T02:31:10.198Z,88.36
2022-08-31T02:32:19.442Z,88.31
2022-08-31T02:33:16.569Z,88.29
2022-08-31T02:34:18.814Z,88.23
2022-08-31T02:35:20.908Z,88.14
2022-08-31T02:36:23.643Z,88.23
2022-08-31T02:37:26.813Z,88.15
2022-08-31T02:38:30.341Z,88.05
2022-08-31T02:39:32.374Z,88.01
2022-08-31T02:40:34.966Z,87.98
2022-08-31T02:41:37.105Z,88.05
2022-08-31T02:42:52.938Z,88.26
2022-08-31T02:43:43.422Z,88.37
2022-08-31T02:44:45.422Z,88.30
2022-08-31T02:45:50.980Z,88.07
2022-08-31T02:46:51.696Z,87.90
2022-08-31T02:47:53.911Z,87.83
2022-08-31T02:48:55.887Z,87.55
2022-08-31T02:49:57.958Z,87.42
2022-08-31T02:51:07.699Z,87.37
2022-08-31T02:52:09.701Z,87.52
2022-08-31T02:53:12.815Z,87.23
2022-08-31T02:54:15.079Z,87.08
2022-08-31T02:55:17.117Z,87.02
2022-08-31T02:56:20.252Z,86.86
2022-08-31T02:57:22.425Z,86.96
2022-08-31T02:58:24.410Z,86.75
2022-08-31T02:59:26.412Z,86.45
2022-08-31T03:00:28.999Z,86.49
2022-08-31T03:01:31.370Z,86.22
2022-08-31T03:02:33.651Z,86.08
2022-08-31T03:03:36.631Z,85.87
2022-08-31T03:04:39.391Z,85.77
2022-08-31T03:05:41.926Z,85.88
2022-08-31T03:06:44.189Z,86.03
2022-08-31T03:07:46.374Z,86.25
2022-08-31T03:08:48.817Z,86.71
2022-08-31T03:09:50.856Z,86.89
2022-08-31T03:10:53.806Z,87.00
2022-08-31T03:11:57.161Z,87.24
2022-08-31T03:12:59.097Z,87.30
2022-08-31T03:14:01.215Z,87.56
2022-08-31T03:15:05.357Z,87.85
2022-08-31T03:16:08.147Z,87.89
2022-08-31T03:17:10.206Z,88.16
2022-08-31T03:18:12.438Z,88.46
2022-08-31T03:19:14.444Z,88.70
2022-08-31T03:20:20.423Z,89.18
2022-08-31T03:21:22.528Z,89.06
2022-08-31T03:22:25.031Z,88.95
2022-08-31T03:23:27.287Z,88.75
2022-08-31T03:24:29.402Z,88.82
2022-08-31T03:25:31.438Z,89.07
2022-08-31T03:26:33.763Z,89.06
2022-08-31T03:27:36.337Z,88.86
2022-08-31T03:28:38.367Z,88.58
2022-08-31T03:29:40.685Z,88.77
2022-08-31T03:30:42.854Z,88.86
2022-08-31T03:31:45.407Z,88.98
2022-08-31T03:32:48.044Z,89.25
2022-08-31T03:33:50.447Z,90.19
2022-08-31T03:34:54.146Z,90.78
2022-08-31T03:35:56.155Z,92.01
2022-08-31T03:36:58.325Z,92.01
2022-08-31T03:38:00.296Z,91.79
2022-08-31T03:39:02.553Z,91.90
2022-08-31T03:40:05.852Z,93.09
2022-08-31T03:41:08.073Z,93.16
2022-08-31T03:42:10.241Z,93.21
2022-08-31T03:43:13.666Z,92.19
2022-08-31T03:44:15.645Z,91.84
2022-08-31T03:45:17.909Z,91.18
2022-08-31T03:46:20.256Z,90.64
2022-08-31T03:47:22.582Z,90.25
2022-08-31T03:48:25.503Z,90.12
2022-08-31T03:49:27.558Z,90.07
2022-08-31T03:50:30.299Z,90.31
2022-08-31T03:51:32.284Z,90.32
2022-08-31T03:52:34.655Z,90.61
2022-08-31T03:53:36.645Z,90.60
2022-08-31T03:54:38.701Z,90.60
2022-08-31T03:55:41.439Z,90.33
2022-08-31T03:56:43.841Z,90.23
2022-08-31T03:57:46.009Z,90.06
2022-08-31T03:58:48.175Z,89.81
2022-08-31T03:59:54.215Z,89.74
2022-08-31T04:00:56.580Z,89.32
2022-08-31T04:01:59.046Z,89.02
2022-08-31T04:03:01.376Z,88.76
2022-08-31T04:04:04.249Z,88.79
2022-08-31T04:05:07.708Z,88.67
2022-08-31T04:06:11.746Z,88.48
2022-08-31T04:07:14.043Z,88.46
2022-08-31T04:08:17.074Z,88.46
2022-08-31T04:09:19.286Z,88.59
2022-08-31T04:10:21.886Z,88.57
2022-08-31T04:11:40.533Z,88.63
2022-08-31T04:12:28.198Z,88.58
2022-08-31T04:13:30.467Z,88.65
2022-08-31T04:14:32.612Z,88.38
2022-08-31T04:15:38.158Z,88.23
2022-08-31T04:16:40.694Z,87.95
2022-08-31T04:17:43.944Z,87.32
2022-08-31T04:18:46.290Z,86.95
2022-08-31T04:19:48.470Z,86.63
2022-08-31T04:20:50.779Z,86.40
2022-08-31T04:21:53.145Z,86.13
2022-08-31T04:22:55.411Z,85.77
2022-08-31T04:23:58.072Z,85.49
2022-08-31T04:25:00.125Z,85.25
2022-08-31T04:26:02.583Z,84.87
2022-08-31T04:27:04.651Z,84.86
2022-08-31T04:28:07.267Z,84.62
2022-08-31T04:29:13.149Z,84.43
2022-08-31T04:30:14.531Z,84.30
2022-08-31T04:31:17.432Z,84.61
2022-08-31T04:32:20.298Z,84.35
2022-08-31T04:33:22.179Z,83.93
2022-08-31T04:34:24.151Z,83.80
2022-08-31T04:35:26.021Z,83.84
2022-08-31T04:36:28.583Z,83.76
2022-08-31T04:37:30.879Z,83.49
2022-08-31T04:38:33.455Z,83.38
2022-08-31T04:39:35.859Z,84.58
2022-08-31T04:40:41.003Z,84.10
2022-08-31T04:41:43.441Z,83.67
2022-08-31T04:42:46.741Z,83.60
2022-08-31T04:43:50.359Z,84.10
2022-08-31T04:44:52.432Z,84.45
2022-08-31T04:45:54.478Z,84.72
2022-08-31T04:46:56.652Z,84.03
2022-08-31T04:47:58.624Z,83.36
2022-08-31T04:49:00.702Z,82.99
2022-08-31T04:50:03.410Z,82.82
2022-08-31T04:51:07.271Z,82.69
2022-08-31T04:52:09.425Z,82.84
2022-08-31T04:53:11.688Z,82.41
2022-08-31T04:54:13.731Z,82.10
2022-08-31T04:55:16.248Z,82.54
2022-08-31T04:56:20.229Z,82.52
2022-08-31T04:57:22.493Z,82.40
2022-08-31T04:58:24.627Z,81.86
2022-08-31T04:59:26.897Z,81.55
2022-08-31T05:00:29.546Z,81.36
2022-08-31T05:01:36.222Z,81.11
2022-08-31T05:02:37.099Z,80.98
2022-08-31T05:03:39.286Z,80.94
2022-08-31T05:04:41.452Z,80.94
2022-08-31T05:05:43.516Z,81.25
2022-08-31T05:06:46.470Z,80.85
2022-08-31T05:07:48.415Z,80.40
2022-08-31T05:08:54.822Z,80.11
2022-08-31T05:09:58.105Z,81.07
2022-08-31T05:11:02.179Z,80.53
2022-08-31T05:12:04.417Z,79.72
2022-08-31T05:13:06.619Z,79.41
2022-08-31T05:14:09.068Z,78.94
2022-08-31T05:15:11.055Z,78.76
2022-08-31T05:16:13.987Z,77.96
2022-08-31T05:17:16.649Z,77.49
2022-08-31T05:18:18.733Z,77.46
2022-08-31T05:19:20.741Z,78.35
2022-08-31T05:20:24.405Z,77.93
2022-08-31T05:21:28.490Z,78.06
2022-08-31T05:22:30.614Z,77.36
2022-08-31T05:23:32.863Z,76.00
2022-08-31T05:24:34.805Z,74.71
2022-08-31T05:25:37.971Z,73.77
2022-08-31T05:26:42.291Z,73.11
2022-08-31T05:27:44.696Z,73.28
2022-08-31T05:28:47.070Z,73.58
2022-08-31T05:29:49.161Z,72.76
2022-08-31T05:30:51.435Z,71.93
2022-08-31T05:31:53.936Z,72.60
2022-08-31T05:32:58.186Z,73.06
2022-08-31T05:34:00.461Z,72.86
2022-08-31T05:35:02.399Z,75.22
2022-08-31T05:36:04.709Z,73.78
2022-08-31T05:37:06.688Z,74.48
2022-08-31T05:38:08.645Z,74.33
2022-08-31T05:39:11.278Z,73.12
2022-08-31T05:40:13.808Z,73.00
2022-08-31T05:41:16.097Z,72.64
2022-08-31T05:42:18.168Z,71.81
2022-08-31T05:43:21.098Z,70.77
2022-08-31T05:44:23.674Z,70.22
2022-08-31T05:45:26.782Z,70.03
2022-08-31T05:46:29.085Z,69.60
2022-08-31T05:47:31.063Z,70.64
2022-08-31T05:48:33.440Z,69.16
2022-08-31T05:49:35.669Z,68.70
2022-08-31T05:50:37.912Z,67.78
2022-08-31T05:51:40.158Z,67.93
2022-08-31T05:52:42.915Z,66.70
2022-08-31T05:53:44.885Z,67.81
2022-08-31T05:54:46.891Z,66.65
2022-08-31T05:55:48.846Z,66.00
2022-08-31T05:56:51.054Z,66.91
2022-08-31T05:57:53.023Z,67.63
2022-08-31T05:58:55.282Z,67.23
2022-08-31T05:59:58.704Z,67.02
2022-08-31T06:01:02.390Z,66.39
2022-08-31T06:02:04.701Z,66.38
2022-08-31T06:03:06.802Z,65.86
2022-08-31T06:04:08.935Z,64.66
2022-08-31T06:05:10.938Z,64.74
2022-08-31T06:06:14.171Z,66.02
2022-08-31T06:07:16.140Z,66.54
2022-08-31T06:08:19.029Z,66.87
2022-08-31T06:09:23.083Z,65.12
2022-08-31T06:10:25.462Z,64.27
2022-08-31T06:11:28.745Z,66.22
2022-08-31T06:12:30.742Z,65.20
2022-08-31T06:13:32.912Z,63.55
2022-08-31T06:14:35.008Z,62.37
2022-08-31T06:15:42.286Z,62.73
2022-08-31T06:16:42.390Z,62.09
2022-08-31T06:17:44.431Z,63.39
2022-08-31T06:18:46.394Z,63.69
2022-08-31T06:19:48.510Z,63.27
2022-08-31T06:20:52.442Z,62.68
2022-08-31T06:21:55.144Z,63.97
2022-08-31T06:22:57.222Z,62.69
2022-08-31T06:24:00.250Z,62.81
2022-08-31T06:25:03.112Z,62.26
2022-08-31T06:26:06.261Z,62.32
2022-08-31T06:27:08.203Z,62.74
2022-08-31T06:28:10.160Z,62.36
2022-08-31T06:29:12.100Z,61.90
2022-08-31T06:30:14.621Z,61.69
2022-08-31T06:31:18.392Z,60.39
2022-08-31T06:32:21.593Z,59.63
2022-08-31T06:33:23.707Z,60.43
2022-08-31T06:34:25.959Z,60.04
2022-08-31T06:35:28.465Z,60.21
2022-08-31T06:36:30.717Z,60.41
2022-08-31T06:37:32.661Z,59.75
2022-08-31T06:38:34.617Z,62.29
2022-08-31T06:39:36.660Z,61.48
2022-08-31T06:40:38.780Z,60.15
2022-08-31T06:41:40.903Z,62.35
2022-08-31T06:42:43.529Z,62.83
2022-08-31T06:43:46.200Z,62.16
2022-08-31T06:44:49.078Z,60.83
2022-08-31T06:45:51.072Z,60.91
2022-08-31T06:46:53.239Z,59.69
2022-08-31T06:47:55.263Z,59.83
2022-08-31T06:48:57.323Z,61.31
2022-08-31T06:49:59.476Z,60.57
2022-08-31T06:51:01.815Z,61.80
2022-08-31T06:52:03.780Z,60.68
2022-08-31T06:53:05.742Z,60.25
2022-08-31T06:54:27.867Z,59.66
2022-08-31T06:55:12.515Z,60.39
2022-08-31T06:56:20.838Z,62.68
2022-08-31T06:57:21.035Z,62.55
2022-08-31T06:58:23.013Z,61.76
2022-08-31T06:59:28.887Z,61.21
2022-08-31T07:00:29.602Z,61.76
2022-08-31T07:01:35.635Z,63.54
2022-08-31T07:02:37.580Z,63.52
2022-08-31T07:03:40.327Z,63.13
2022-08-31T07:04:45.435Z,63.65
2022-08-31T07:05:47.424Z,65.39
2022-08-31T07:06:49.515Z,64.38
2022-08-31T07:07:51.501Z,64.31
2022-08-31T07:08:55.361Z,62.90
2022-08-31T07:09:57.482Z,61.37
2022-08-31T07:10:59.638Z,60.98
2022-08-31T07:12:01.758Z,60.59
2022-08-31T07:13:03.798Z,62.52
2022-08-31T07:14:06.481Z,61.45
2022-08-31T07:15:08.784Z,61.85
2022-08-31T07:16:12.639Z,61.00
2022-08-31T07:17:14.884Z,61.33
2022-08-31T07:18:16.862Z,60.65
2022-08-31T07:19:19.057Z,60.67
2022-08-31T07:20:22.920Z,60.58
2022-08-31T07:21:26.782Z,60.64
2022-08-31T07:22:28.862Z,60.29
2022-08-31T07:23:30.971Z,59.03
2022-08-31T07:24:33.109Z,58.28
2022-08-31T07:25:36.256Z,58.39
2022-08-31T07:26:40.160Z,58.41
2022-08-31T07:27:42.137Z,59.62
2022-08-31T07:28:46.023Z,58.41
2022-08-31T07:29:48.015Z,57.62
2022-08-31T07:30:50.307Z,56.50
2022-08-31T07:31:52.503Z,56.21
2022-08-31T07:32:56.344Z,55.95
2022-08-31T07:33:58.299Z,58.08
2022-08-31T07:35:01.034Z,56.17
2022-08-31T07:36:04.342Z,55.88
2022-08-31T07:37:06.384Z,56.87
2022-08-31T07:38:08.370Z,59.09
2022-08-31T07:39:10.366Z,60.08
2022-08-31T07:40:12.526Z,60.84
2022-08-31T07:41:15.230Z,60.01
2022-08-31T07:42:21.042Z,60.11
2022-08-31T07:43:23.630Z,59.68
2022-08-31T07:44:25.608Z,59.73
2022-08-31T07:45:30.693Z,61.41
2022-08-31T07:46:32.394Z,61.40
2022-08-31T07:47:34.405Z,61.65
2022-08-31T07:48:37.084Z,62.49
2022-08-31T07:49:39.896Z,63.33
2022-08-31T07:50:42.025Z,62.70
2022-08-31T07:51:45.896Z,63.32
2022-08-31T07:52:48.921Z,62.85
2022-08-31T07:53:51.533Z,62.21
2022-08-31T07:54:55.432Z,61.20
2022-08-31T07:55:57.713Z,60.67
2022-08-31T07:57:00.044Z,60.21
2022-08-31T07:58:02.239Z,58.97
2022-08-31T07:59:04.253Z,58.26
2022-08-31T08:00:07.061Z,57.67
2022-08-31T08:01:10.186Z,57.43
2022-08-31T08:02:17.062Z,56.52
2022-08-31T08:03:16.436Z,56.80
2022-08-31T08:04:18.553Z,57.65
2022-08-31T08:05:22.494Z,59.80
2022-08-31T08:06:29.011Z,59.77
2022-08-31T08:07:33.642Z,60.24
2022-08-31T08:08:35.856Z,60.80
2022-08-31T08:09:37.831Z,62.11
2022-08-31T08:10:41.411Z,61.85
2022-08-31T08:11:44.566Z,62.70
2022-08-31T08:12:48.326Z,62.55
2022-08-31T08:13:52.124Z,62.04
2022-08-31T08:14:58.135Z,62.15
2022-08-31T08:16:00.243Z,60.88
2022-08-31T08:17:04.099Z,61.27
2022-08-31T08:18:06.073Z,60.22
2022-08-31T08:19:08.086Z,61.71
2022-08-31T08:20:13.715Z,62.02
2022-08-31T08:21:14.478Z,62.67
2022-08-31T08:22:35.673Z,62.56
2022-08-31T08:23:28.006Z,62.67
2022-08-31T08:24:26.114Z,64.25
2022-08-31T08:25:28.063Z,64.43
2022-08-31T08:26:30.590Z,64.93
2022-08-31T08:27:33.188Z,63.82
2022-08-31T08:28:39.595Z,62.77
2022-08-31T08:29:39.680Z,61.93
2022-08-31T08:30:43.508Z,61.28
2022-08-31T08:31:47.609Z,61.95
2022-08-31T08:32:49.620Z,61.90
2022-08-31T08:33:51.909Z,61.75
2022-08-31T08:34:53.979Z,59.92
2022-08-31T08:35:57.159Z,59.27
2022-08-31T08:36:59.446Z,59.03
2022-08-31T08:38:07.031Z,59.39
2022-08-31T08:39:06.520Z,58.97
2022-08-31T08:40:10.540Z,58.28
2022-08-31T08:41:14.285Z,58.35
2022-08-31T08:42:17.128Z,58.15
2022-08-31T08:43:20.931Z,58.65
2022-08-31T08:44:24.663Z,57.66
2022-08-31T08:45:26.729Z,58.34
2022-08-31T08:46:37.227Z,60.36
2022-08-31T08:47:39.493Z,60.26
2022-08-31T08:48:42.790Z,60.09
2022-08-31T08:49:50.912Z,59.77
2022-08-31T08:50:51.628Z,59.09
2022-08-31T08:51:55.376Z,58.23
2022-08-31T08:52:59.103Z,57.92
2022-08-31T08:54:02.823Z,58.46
2022-08-31T08:55:06.675Z,58.77
2022-08-31T08:56:31.837Z,59.15
2022-08-31T08:57:17.819Z,59.70
2022-08-31T08:58:19.811Z,59.83
2022-08-31T08:59:21.739Z,59.50
2022-08-31T09:00:26.891Z,59.47
2022-08-31T09:01:28.940Z,59.89
2022-08-31T09:02:38.655Z,60.80
2022-08-31T09:03:45.525Z,60.22
2022-08-31T09:04:49.558Z,59.67
2022-08-31T09:05:53.428Z,58.55
2022-08-31T09:07:06.170Z,58.07
2022-08-31T09:08:18.924Z,57.48
2022-08-31T09:09:34.747Z,57.04
2022-08-31T09:10:38.574Z,57.91
2022-08-31T09:11:42.408Z,58.40
2022-08-31T09:12:46.211Z,57.40
2022-08-31T09:14:06.725Z,56.75
2022-08-31T09:15:25.571Z,56.30
2022-08-31T09:16:29.422Z,58.32
2022-08-31T09:17:48.423Z,56.74
2022-08-31T09:18:58.082Z,58.32
2022-08-31T09:20:00.056Z,58.64
2022-08-31T09:21:09.570Z,58.79
2022-08-31T09:22:11.616Z,59.89
2022-08-31T09:23:13.688Z,60.78
2022-08-31T09:24:17.247Z,61.65
2022-08-31T09:25:20.992Z,61.75
2022-08-31T09:26:23.718Z,62.11
2022-08-31T09:27:27.468Z,61.74
2022-08-31T09:28:40.103Z,61.76
2022-08-31T09:29:42.449Z,61.53
2022-08-31T09:30:46.301Z,62.02
2022-08-31T09:31:48.360Z,61.92
2022-08-31T09:32:52.074Z,62.28
2022-08-31T09:33:54.095Z,63.06
2022-08-31T09:34:57.806Z,63.21
2022-08-31T09:36:16.989Z,62.80
2022-08-31T09:37:20.426Z,62.67
2022-08-31T09:38:29.340Z,62.57
2022-08-31T09:39:33.099Z,62.27
2022-08-31T09:40:40.893Z,62.17
2022-08-31T09:41:43.455Z,61.81
2022-08-31T09:42:47.217Z,61.09
2022-08-31T09:43:50.485Z,60.38
2022-08-31T09:44:52.721Z,60.06
2022-08-31T09:45:59.369Z,60.77
2022-08-31T09:47:03.252Z,59.65
2022-08-31T09:48:06.605Z,58.79
2022-08-31T09:49:10.462Z,58.32
2022-08-31T09:50:27.224Z,58.69
2022-08-31T09:51:34.714Z,58.21
2022-08-31T09:52:37.403Z,57.87
2022-08-31T09:53:40.972Z,58.69
2022-08-31T09:54:47.276Z,58.93
2022-08-31T09:55:50.327Z,59.34
2022-08-31T09:56:53.690Z,59.39
2022-08-31T09:57:56.946Z,59.26
2022-08-31T09:59:00.305Z,59.17
2022-08-31T10:00:03.233Z,59.47
2022-08-31T10:01:07.114Z,59.70
2022-08-31T10:02:23.320Z,61.45
2022-08-31T10:03:27.241Z,61.79
2022-08-31T10:04:30.507Z,62.33
2022-08-31T10:05:33.957Z,62.07
2022-08-31T10:06:38.215Z,62.99
2022-08-31T10:07:47.997Z,63.35
2022-08-31T10:08:51.770Z,63.77
2022-08-31T10:10:30.426Z,63.62
2022-08-31T10:11:18.225Z,63.09
2022-08-31T10:12:21.992Z,62.67
2022-08-31T10:13:28.748Z,62.86
2022-08-31T10:14:35.558Z,63.58
2022-08-31T10:15:39.373Z,63.66
2022-08-31T10:16:46.492Z,63.55
2022-08-31T10:18:08.332Z,63.30
2022-08-31T10:19:15.167Z,62.95
2022-08-31T10:20:18.981Z,63.18
2022-08-31T10:21:22.903Z,62.27
2022-08-31T10:23:47.349Z,59.80
2022-08-31T10:24:51.607Z,59.40
2022-08-31T10:25:55.460Z,60.30
2022-08-31T10:27:02.033Z,59.80
2022-08-31T10:28:05.842Z,59.86
2022-08-31T10:29:10.297Z,59.49
2022-08-31T10:30:23.816Z,59.60
2022-08-31T10:31:30.397Z,58.99
2022-08-31T10:32:36.949Z,59.13
2022-08-31T10:33:40.985Z,58.88
2022-08-31T10:34:44.447Z,58.82
2022-08-31T10:35:51.116Z,58.56
2022-08-31T10:36:55.360Z,57.95
2022-08-31T10:38:04.943Z,57.84
2022-08-31T10:39:09.071Z,57.49
2022-08-31T10:40:13.389Z,57.79
2022-08-31T10:41:17.382Z,57.73
2022-08-31T10:42:27.419Z,58.09
2022-08-31T10:43:37.633Z,57.53
2022-08-31T10:44:41.354Z,57.60
2022-08-31T10:45:49.359Z,57.44
2022-08-31T10:46:52.155Z,57.14
2022-08-31T10:47:55.204Z,58.12
2022-08-31T10:48:57.858Z,58.97
2022-08-31T10:50:00.308Z,60.24
2022-08-31T10:51:07.196Z,61.50
2022-08-31T10:52:15.855Z,62.39
2022-08-31T10:53:22.394Z,62.12
2022-08-31T10:54:42.995Z,62.56
2022-08-31T10:55:56.014Z,62.89
2022-08-31T10:57:21.405Z,62.64
2022-08-31T10:58:22.297Z,62.56
2022-08-31T10:59:41.052Z,61.66
2022-08-31T11:00:52.503Z,61.22
2022-08-31T11:02:02.348Z,60.96
2022-08-31T11:03:15.319Z,61.04
2022-08-31T11:04:21.881Z,60.41
2022-08-31T11:05:25.807Z,59.83
2022-08-31T11:06:32.955Z,59.39
2022-08-31T11:07:36.675Z,59.27
2022-08-31T11:08:43.438Z,59.29
2022-08-31T11:09:47.247Z,59.89
2022-08-31T11:10:51.019Z,60.07
2022-08-31T11:12:01.015Z,60.34
2022-08-31T11:13:05.870Z,62.13
2022-08-31T11:14:09.606Z,62.26
2022-08-31T11:15:13.357Z,62.29
2022-08-31T11:16:23.543Z,62.34
2022-08-31T11:17:33.545Z,62.47
2022-08-31T11:18:55.385Z,62.08
2022-08-31T11:20:08.244Z,61.41
2022-08-31T11:21:24.729Z,61.04
2022-08-31T11:22:34.365Z,60.18
2022-08-31T11:23:42.265Z,59.06
2022-08-31T11:25:00.529Z,59.00
2022-08-31T11:26:22.456Z,58.91
2022-08-31T11:27:29.176Z,59.74
2022-08-31T11:28:33.109Z,60.28
2022-08-31T11:29:49.268Z,60.75
2022-08-31T11:30:51.571Z,60.92
2022-08-31T11:31:55.935Z,60.82
2022-08-31T11:33:05.822Z,59.84
2022-08-31T11:34:16.407Z,58.76
2022-08-31T11:35:42.290Z,58.21
2022-08-31T11:36:49.418Z,58.16
2022-08-31T11:37:52.481Z,59.00
2022-08-31T11:39:02.365Z,58.68
2022-08-31T11:40:06.390Z,58.68
2022-08-31T11:41:08.596Z,58.54
2022-08-31T11:42:12.501Z,59.50
2022-08-31T11:43:17.001Z,59.39
2022-08-31T11:44:29.905Z,59.19
2022-08-31T11:45:33.668Z,59.11
2022-08-31T11:46:38.554Z,59.14
2022-08-31T11:47:42.025Z,58.83
2022-08-31T11:48:55.139Z,59.25
2022-08-31T11:49:59.140Z,59.09
2022-08-31T11:51:02.959Z,58.74
2022-08-31T11:52:06.724Z,58.62
2022-08-31T11:53:19.709Z,59.77
2022-08-31T11:54:23.864Z,59.38
2022-08-31T11:55:29.989Z,58.80
2022-08-31T11:56:34.421Z,58.93
2022-08-31T11:57:55.152Z,58.06
2022-08-31T11:58:59.238Z,57.79
2022-08-31T12:00:01.719Z,57.93
2022-08-31T12:01:06.345Z,58.02
2022-08-31T12:02:23.062Z,57.87
2022-08-31T12:03:33.016Z,57.92
2022-08-31T12:04:36.750Z,57.55
2022-08-31T12:05:47.037Z,57.58
2022-08-31T12:06:50.849Z,57.36
2022-08-31T12:07:52.978Z,56.87
2022-08-31T12:09:03.344Z,57.31
2022-08-31T12:10:11.041Z,57.37
2022-08-31T12:11:20.887Z,58.01
2022-08-31T12:12:33.736Z,57.59
2022-08-31T12:13:40.435Z,56.06
2022-08-31T12:14:44.226Z,54.14
2022-08-31T12:15:47.987Z,54.17
2022-08-31T12:16:51.882Z,54.82
2022-08-31T12:17:58.349Z,55.57
2022-08-31T12:19:02.095Z,55.67
2022-08-31T12:20:08.752Z,55.55
2022-08-31T12:21:21.542Z,55.60
2022-08-31T12:22:25.360Z,55.65
2022-08-31T12:23:30.625Z,55.50
2022-08-31T12:24:34.804Z,55.93
2022-08-31T12:25:57.816Z,56.63
2022-08-31T12:27:10.702Z,56.62
2022-08-31T12:28:29.237Z,56.51
2022-08-31T12:29:32.248Z,56.38
2022-08-31T12:30:34.371Z,56.80
2022-08-31T12:31:38.446Z,56.49
2022-08-31T12:32:41.447Z,55.91
2022-08-31T12:33:45.269Z,55.37
2022-08-31T12:34:49.118Z,55.17
2022-08-31T12:35:55.038Z,54.88
2022-08-31T12:36:57.135Z,55.48
2022-08-31T12:38:00.899Z,56.30
2022-08-31T12:39:06.356Z,55.78
2022-08-31T12:40:13.600Z,55.95
2022-08-31T12:41:16.029Z,56.07
2022-08-31T12:42:18.090Z,55.76
2022-08-31T12:43:24.757Z,55.76
2022-08-31T12:44:31.344Z,55.74
2022-08-31T12:45:35.087Z,55.80
2022-08-31T12:46:55.735Z,55.58
2022-08-31T12:48:16.423Z,55.93
2022-08-31T12:49:23.377Z,56.31
2022-08-31T12:50:27.242Z,56.01
2022-08-31T12:51:40.103Z,55.95
2022-08-31T12:52:53.229Z,55.53
2022-08-31T12:53:57.038Z,55.58
2022-08-31T12:55:08.883Z,55.08
2022-08-31T12:56:16.370Z,54.74
2022-08-31T12:57:36.819Z,54.77
2022-08-31T12:58:49.790Z,54.20
2022-08-31T13:00:03.290Z,53.94
2022-08-31T13:01:13.951Z,53.75
2022-08-31T13:02:16.957Z,54.43
2022-08-31T13:03:21.537Z,54.37
2022-08-31T13:04:24.924Z,54.96
2022-08-31T13:05:28.634Z,55.09
2022-08-31T13:06:32.401Z,55.25
2022-08-31T13:07:34.644Z,55.86
2022-08-31T13:08:38.449Z,55.70
2022-08-31T13:09:40.381Z,55.58
2022-08-31T13:10:42.474Z,54.93
2022-08-31T13:11:46.332Z,55.30
2022-08-31T13:12:50.166Z,54.68
2022-08-31T13:13:54.118Z,54.62
2022-08-31T13:14:56.835Z,54.40
2022-08-31T13:16:00.275Z,54.55
2022-08-31T13:17:04.055Z,54.99
2022-08-31T13:18:07.869Z,55.12
2022-08-31T13:19:11.657Z,55.08
2022-08-31T13:20:15.896Z,55.17
2022-08-31T13:21:19.162Z,55.03
2022-08-31T13:22:31.903Z,55.02
2022-08-31T13:23:35.594Z,54.73
2022-08-31T13:24:38.842Z,54.70
2022-08-31T13:25:41.054Z,54.21
2022-08-31T13:26:43.348Z,53.90
2022-08-31T13:27:49.592Z,54.36
2022-08-31T13:28:56.331Z,54.30
2022-08-31T13:30:00.054Z,54.33
2022-08-31T13:31:04.011Z,54.13
2022-08-31T13:32:06.820Z,54.91
2022-08-31T13:33:19.435Z,54.69
2022-08-31T13:34:21.595Z,54.47
2022-08-31T13:35:24.876Z,54.16
2022-08-31T13:36:29.024Z,54.10
2022-08-31T13:37:32.803Z,54.44
2022-08-31T13:38:36.365Z,54.64
2022-08-31T13:39:43.218Z,54.62
2022-08-31T13:40:47.058Z,54.54
2022-08-31T13:42:08.782Z,55.06
2022-08-31T13:43:12.620Z,55.02
2022-08-31T13:44:14.593Z,54.87
2022-08-31T13:45:24.635Z,54.34
2022-08-31T13:46:42.276Z,54.10
2022-08-31T13:47:48.763Z,54.79